OKK weather

Kokomo Municipal Airport
Kokomo, Indiana, United States

Public forecast

Using degrees Fahrenheit for public forecast. Weather courtesy of forecast.io.

METAR (pilot weather report)

Retrieved 2019/09/22 16:56 UTC (45 minutes ago):

KOKK 221656Z AUTO 23023G29KT 10SM CLR 28/15 A3002 RMK AO2 PK WND 23029/1655 SLP160 T02830150

TAF (pilot weather forecast)

Forecast is more than 6 hours old.

Closest forecast is Grissom Air Reserve Base, 8.4 nm (15.5 km) NNW. Retrieved 2019/09/22 11:27 UTC (6 hours ago):

TAF KGUS 221100Z 2211/2317 20009KT 9999 SCT060 BKN090 QNH3000INS BECMG 2214/2215 21015G25KT 9999 BKN100 QNH2987INS TEMPO 2217/2221 22025G35KT 520003 BECMG 2221/2222 22012KT 9999 BKN050 QNH2984INS BECMG 2301/2302 24010G15KT 8000 -SHRA BKN025 OVC040 QNH2983INS TEMPO 2306/2310 26015G25KT 6000 -TSRA OVC010CB BECMG 2309/2310 30012KT 9999 NSW BKN010 OVC020 QNH2985INS BECMG 2314/2315 30012G18KT 9999 SCT020 QNH2998INS TX29/2219Z TN16/2309Z